createdAt,value
2022-10-31T00:01:02.999Z,92.83
2022-10-31T00:03:20.952Z,92.00
2022-10-31T00:05:38.029Z,91.94
2022-10-31T00:07:55.295Z,92.06
2022-10-31T00:10:12.207Z,91.93
2022-10-31T00:12:29.464Z,92.74
2022-10-31T00:14:46.460Z,93.28
2022-10-31T00:17:03.439Z,92.27
2022-10-31T00:19:21.504Z,91.50
2022-10-31T00:21:38.513Z,93.06
2022-10-31T00:23:56.474Z,92.17
2022-10-31T00:26:13.382Z,92.22
2022-10-31T00:28:30.621Z,91.90
2022-10-31T00:30:47.664Z,92.99
2022-10-31T00:33:04.633Z,92.61
2022-10-31T00:35:21.627Z,92.87
2022-10-31T00:37:38.661Z,93.33
2022-10-31T00:39:55.647Z,91.86
2022-10-31T00:42:12.928Z,92.22
2022-10-31T00:44:31.120Z,92.16
2022-10-31T00:46:48.133Z,92.34
2022-10-31T00:49:05.090Z,92.01
2022-10-31T00:51:23.100Z,92.98
2022-10-31T00:53:39.970Z,92.18
2022-10-31T00:55:57.993Z,92.07
2022-10-31T01:00:32.278Z,92.77
2022-10-31T01:02:49.303Z,93.07
2022-10-31T01:05:07.290Z,92.83
2022-10-31T01:07:24.482Z,92.86
2022-10-31T01:09:41.804Z,92.95
2022-10-31T01:11:58.804Z,92.60
2022-10-31T01:14:16.851Z,93.17
2022-10-31T01:16:33.874Z,92.52
2022-10-31T01:18:50.742Z,92.66
2022-10-31T01:21:07.764Z,93.31
2022-10-31T01:23:25.055Z,92.29
2022-10-31T01:25:42.047Z,92.80
2022-10-31T01:28:00.274Z,93.36
2022-10-31T01:30:17.863Z,93.47
2022-10-31T01:32:35.745Z,93.08
2022-10-31T01:34:52.768Z,93.90
2022-10-31T01:37:09.995Z,93.02
2022-10-31T01:39:27.200Z,94.25
2022-10-31T01:41:45.199Z,93.10
2022-10-31T01:44:02.416Z,93.06
2022-10-31T01:46:19.437Z,92.98
2022-10-31T01:48:36.677Z,93.45
2022-10-31T01:50:53.960Z,94.29
2022-10-31T01:53:11.478Z,93.92
2022-10-31T01:55:30.372Z,93.27
2022-10-31T01:57:47.544Z,93.27
2022-10-31T02:00:04.585Z,94.02
2022-10-31T02:02:21.950Z,93.60
2022-10-31T02:04:39.012Z,93.28
2022-10-31T02:06:56.981Z,93.16
2022-10-31T02:09:14.178Z,94.67
2022-10-31T02:11:31.162Z,94.73
2022-10-31T02:13:48.341Z,94.32
2022-10-31T02:16:05.340Z,93.52
2022-10-31T02:18:22.558Z,94.21
2022-10-31T02:20:39.786Z,93.06
2022-10-31T02:22:57.040Z,94.32
2022-10-31T02:25:14.351Z,92.93
2022-10-31T02:27:31.202Z,93.17
2022-10-31T02:29:51.373Z,94.15
2022-10-31T02:32:08.577Z,93.78
2022-10-31T02:34:25.899Z,94.99
2022-10-31T02:36:42.795Z,94.15
2022-10-31T02:38:59.731Z,93.69
2022-10-31T02:41:17.003Z,93.75
2022-10-31T02:43:34.239Z,94.08
2022-10-31T02:45:51.422Z,93.64
2022-10-31T02:48:08.710Z,94.79
2022-10-31T02:50:26.929Z,93.82
2022-10-31T02:52:43.899Z,94.88
2022-10-31T02:55:00.880Z,94.16
2022-10-31T02:57:17.824Z,95.23
2022-10-31T02:59:35.095Z,95.40
2022-10-31T03:01:53.114Z,94.95
2022-10-31T03:04:11.660Z,94.73
2022-10-31T03:06:28.659Z,93.95
2022-10-31T03:08:45.838Z,95.06
2022-10-31T03:11:03.068Z,95.01
2022-10-31T03:13:21.073Z,95.28
2022-10-31T03:15:38.307Z,94.40
2022-10-31T03:17:55.316Z,93.98
2022-10-31T03:20:12.245Z,95.35
2022-10-31T03:22:29.241Z,94.32
2022-10-31T03:24:46.303Z,94.35
2022-10-31T03:27:03.248Z,94.89
2022-10-31T03:29:20.578Z,94.58
2022-10-31T03:31:38.586Z,94.02
2022-10-31T03:33:55.820Z,93.98
2022-10-31T03:36:12.794Z,93.85
2022-10-31T03:38:30.815Z,94.89
2022-10-31T03:40:47.833Z,95.12
2022-10-31T03:43:05.096Z,95.59
2022-10-31T03:45:24.826Z,94.12
2022-10-31T03:47:41.878Z,94.60
2022-10-31T03:49:58.874Z,94.00
2022-10-31T03:52:16.146Z,95.33
2022-10-31T03:54:33.151Z,95.35
2022-10-31T03:56:50.181Z,95.20
2022-10-31T03:59:07.417Z,95.31
2022-10-31T04:01:24.482Z,94.47
2022-10-31T04:03:41.596Z,94.16
2022-10-31T04:05:58.551Z,94.76
2022-10-31T04:08:15.841Z,94.40
2022-10-31T04:10:33.783Z,95.20
2022-10-31T04:12:51.663Z,95.35
2022-10-31T04:15:08.640Z,95.39
2022-10-31T04:17:25.830Z,95.44
2022-10-31T04:19:43.140Z,95.96
2022-10-31T04:22:00.080Z,95.93
2022-10-31T04:24:16.954Z,95.70
2022-10-31T04:26:35.369Z,95.94
2022-10-31T04:28:53.282Z,94.53
2022-10-31T04:31:10.342Z,95.21
2022-10-31T04:33:27.253Z,95.49
2022-10-31T04:35:44.318Z,95.41
2022-10-31T04:38:01.530Z,95.80
2022-10-31T04:40:18.491Z,94.92
2022-10-31T04:42:35.495Z,94.44
2022-10-31T04:44:52.482Z,95.11
2022-10-31T04:47:09.668Z,95.78
2022-10-31T04:49:26.701Z,96.03
2022-10-31T04:51:43.612Z,95.56
2022-10-31T04:54:00.829Z,95.65
2022-10-31T04:56:17.746Z,95.87
2022-10-31T04:58:34.756Z,95.80
2022-10-31T05:00:52.039Z,94.53
2022-10-31T05:03:09.501Z,94.44
2022-10-31T05:05:27.774Z,95.21
2022-10-31T05:07:44.731Z,93.89
2022-10-31T05:10:02.041Z,94.69
2022-10-31T05:12:19.220Z,94.18
2022-10-31T05:14:36.143Z,93.86
2022-10-31T05:16:53.207Z,95.52
2022-10-31T05:19:10.212Z,93.83
2022-10-31T05:21:27.230Z,93.80
2022-10-31T05:23:47.492Z,93.78
2022-10-31T05:26:05.962Z,93.61
2022-10-31T05:28:23.400Z,93.75
2022-10-31T05:30:40.307Z,94.05
2022-10-31T05:32:57.836Z,93.96
2022-10-31T05:35:15.965Z,94.49
2022-10-31T05:37:33.232Z,94.40
2022-10-31T05:39:50.496Z,93.96
2022-10-31T05:42:07.523Z,92.82
2022-10-31T05:44:24.582Z,93.96
2022-10-31T05:46:41.563Z,92.91
2022-10-31T05:49:01.735Z,93.81
2022-10-31T05:51:19.664Z,93.82
2022-10-31T05:53:36.880Z,93.53
2022-10-31T05:55:54.151Z,92.96
2022-10-31T05:58:11.394Z,93.38
2022-10-31T06:00:28.320Z,92.99
2022-10-31T06:02:45.292Z,93.25
2022-10-31T06:05:02.578Z,94.30
2022-10-31T06:07:19.751Z,93.47
2022-10-31T06:09:36.691Z,93.36
2022-10-31T06:11:54.101Z,94.00
2022-10-31T06:14:11.341Z,94.05
2022-10-31T06:16:29.268Z,94.03
2022-10-31T06:18:46.108Z,93.26
2022-10-31T06:21:03.137Z,94.17
2022-10-31T06:23:20.181Z,93.84
2022-10-31T06:25:37.368Z,93.13
2022-10-31T06:27:54.351Z,94.29
2022-10-31T06:30:11.258Z,93.05
2022-10-31T06:32:28.525Z,94.22
2022-10-31T06:34:45.820Z,93.92
2022-10-31T06:37:03.821Z,93.03
2022-10-31T06:39:20.734Z,92.81
2022-10-31T06:41:38.343Z,94.05
2022-10-31T06:43:55.551Z,93.16
2022-10-31T06:46:12.846Z,93.17
2022-10-31T06:48:32.186Z,93.84
2022-10-31T06:50:49.215Z,93.15
2022-10-31T06:53:07.187Z,92.93
2022-10-31T06:55:24.486Z,92.92
2022-10-31T06:57:41.423Z,93.51
2022-10-31T06:59:58.459Z,93.16
2022-10-31T07:02:15.434Z,94.05
2022-10-31T07:04:32.855Z,93.49
2022-10-31T07:06:51.917Z,94.30
2022-10-31T07:09:09.131Z,94.07
2022-10-31T07:11:26.041Z,93.83
2022-10-31T07:13:42.998Z,93.09
2022-10-31T07:16:00.036Z,94.19
2022-10-31T07:18:18.100Z,94.55
2022-10-31T07:20:35.586Z,93.45
2022-10-31T07:22:52.821Z,93.37
2022-10-31T07:25:09.716Z,93.31
2022-10-31T07:27:26.699Z,93.56
2022-10-31T07:29:43.716Z,93.48
2022-10-31T07:32:00.704Z,93.31
2022-10-31T07:34:17.917Z,94.76
2022-10-31T07:36:34.946Z,93.30
2022-10-31T07:38:52.386Z,93.59
2022-10-31T07:41:09.607Z,93.64
2022-10-31T07:43:26.673Z,93.71
2022-10-31T07:45:44.283Z,93.31
2022-10-31T07:48:02.964Z,94.69
2022-10-31T07:50:21.116Z,93.40
2022-10-31T07:52:38.159Z,94.27
2022-10-31T07:54:55.463Z,94.31
2022-10-31T07:57:12.525Z,94.52
2022-10-31T07:59:29.514Z,93.55
2022-10-31T08:01:47.531Z,94.05
2022-10-31T08:04:04.791Z,92.49
2022-10-31T08:06:21.734Z,92.35
2022-10-31T08:08:39.797Z,92.59
2022-10-31T08:10:56.691Z,92.83
2022-10-31T08:13:13.785Z,92.74
2022-10-31T08:15:31.075Z,93.00
2022-10-31T08:17:48.421Z,92.73
2022-10-31T08:20:05.646Z,94.04
2022-10-31T08:22:22.655Z,92.64
2022-10-31T08:24:46.884Z,92.93
2022-10-31T08:27:03.937Z,92.45
2022-10-31T08:29:20.879Z,92.29
2022-10-31T08:31:42.621Z,91.43
2022-10-31T08:34:01.242Z,92.09
2022-10-31T08:36:18.581Z,92.65
2022-10-31T08:38:35.925Z,92.79
2022-10-31T08:40:52.973Z,91.91
2022-10-31T08:43:10.295Z,92.37
2022-10-31T08:45:27.632Z,92.14
2022-10-31T08:47:44.708Z,91.67
2022-10-31T08:50:02.874Z,92.13
2022-10-31T08:52:21.537Z,91.59
2022-10-31T08:54:39.543Z,91.67
2022-10-31T08:56:57.406Z,92.47
2022-10-31T08:59:14.478Z,92.24
2022-10-31T09:01:31.941Z,92.04
2022-10-31T09:03:49.330Z,91.85
2022-10-31T09:06:06.822Z,91.79
2022-10-31T09:08:25.268Z,91.70
2022-10-31T09:10:43.204Z,91.26
2022-10-31T09:13:00.181Z,91.02
2022-10-31T09:15:17.575Z,91.05
2022-10-31T09:17:35.338Z,91.10
2022-10-31T09:19:52.603Z,90.70
2022-10-31T09:22:09.850Z,90.73
2022-10-31T09:24:27.112Z,90.86
2022-10-31T09:26:44.266Z,90.68
2022-10-31T09:29:01.552Z,90.83
2022-10-31T09:31:18.611Z,90.91
2022-10-31T09:33:35.916Z,90.57
2022-10-31T09:35:52.974Z,90.09
2022-10-31T09:38:10.014Z,90.35
2022-10-31T09:40:27.290Z,88.50
2022-10-31T09:42:45.525Z,89.22
2022-10-31T09:45:02.464Z,88.73
2022-10-31T09:47:20.586Z,89.59
2022-10-31T09:49:41.620Z,88.80
2022-10-31T09:51:58.633Z,89.05
2022-10-31T09:54:16.054Z,89.54
2022-10-31T09:56:32.985Z,89.87
2022-10-31T09:58:50.725Z,89.22
2022-10-31T10:01:07.870Z,89.56
2022-10-31T10:03:26.423Z,88.83
2022-10-31T10:05:45.943Z,87.33
2022-10-31T10:08:04.877Z,87.54
2022-10-31T10:10:21.938Z,88.29
2022-10-31T10:12:40.352Z,88.55
2022-10-31T10:14:57.446Z,86.23
2022-10-31T10:17:14.760Z,87.76
2022-10-31T10:19:32.731Z,86.09
2022-10-31T10:21:50.088Z,87.22
2022-10-31T10:24:08.398Z,87.01
2022-10-31T10:26:25.465Z,87.07
2022-10-31T10:28:42.888Z,87.70
2022-10-31T10:31:00.996Z,86.71
2022-10-31T10:33:17.925Z,86.75
2022-10-31T10:35:35.938Z,85.93
2022-10-31T10:40:27.769Z,85.18
2022-10-31T10:42:44.811Z,84.68
2022-10-31T10:45:01.791Z,83.76
2022-10-31T10:47:18.846Z,83.36
2022-10-31T10:49:35.908Z,84.86
2022-10-31T10:54:29.912Z,85.66
2022-10-31T10:56:47.273Z,84.07
2022-10-31T10:59:06.394Z,84.20
2022-10-31T11:01:23.452Z,84.64
2022-10-31T11:03:40.582Z,84.75
2022-10-31T11:05:59.008Z,85.05
2022-10-31T11:08:21.500Z,83.96
2022-10-31T11:10:41.881Z,83.66
2022-10-31T11:12:59.525Z,83.59
2022-10-31T11:15:16.820Z,83.21
2022-10-31T11:17:34.181Z,82.76
2022-10-31T11:19:51.372Z,82.79
2022-10-31T11:22:09.104Z,82.81
2022-10-31T11:24:26.180Z,82.83
2022-10-31T11:26:43.267Z,83.17
2022-10-31T11:29:01.274Z,82.79
2022-10-31T11:31:20.651Z,81.67
2022-10-31T11:33:38.037Z,82.98
2022-10-31T11:35:57.903Z,83.05
2022-10-31T11:38:15.625Z,82.58
2022-10-31T11:40:32.834Z,81.68
2022-10-31T11:42:50.153Z,81.89
2022-10-31T11:45:07.142Z,81.59
2022-10-31T11:47:24.441Z,80.82
2022-10-31T11:49:41.909Z,80.88
2022-10-31T11:51:58.919Z,81.09
2022-10-31T11:54:16.239Z,80.74
2022-10-31T11:56:33.304Z,81.50
2022-10-31T11:58:50.337Z,80.00
2022-10-31T12:01:07.670Z,81.41
2022-10-31T12:03:24.723Z,80.40
2022-10-31T12:05:41.804Z,79.65
2022-10-31T12:08:03.450Z,79.33
2022-10-31T12:10:21.699Z,79.68
2022-10-31T12:12:39.063Z,80.45
2022-10-31T12:14:56.073Z,79.75
2022-10-31T12:17:13.154Z,80.17
2022-10-31T12:19:33.368Z,79.04
2022-10-31T12:21:51.398Z,80.05
2022-10-31T12:24:08.772Z,79.99
2022-10-31T12:26:25.807Z,79.78
2022-10-31T12:28:46.206Z,79.34
2022-10-31T12:31:06.379Z,79.00
2022-10-31T12:33:23.292Z,78.11
2022-10-31T12:35:42.299Z,78.40
2022-10-31T12:37:59.616Z,79.51
2022-10-31T12:40:16.963Z,79.48
2022-10-31T12:42:34.086Z,78.97
2022-10-31T12:44:51.313Z,80.19
2022-10-31T12:47:08.389Z,79.21
2022-10-31T12:49:31.446Z,80.28
2022-10-31T12:51:48.474Z,80.51
2022-10-31T12:54:07.729Z,79.42
2022-10-31T12:56:24.795Z,79.94
2022-10-31T12:58:42.782Z,79.82
2022-10-31T13:01:00.229Z,79.21
2022-10-31T13:03:18.143Z,79.54
2022-10-31T13:05:35.502Z,78.79
2022-10-31T13:07:52.873Z,80.16
2022-10-31T13:10:09.877Z,79.92
2022-10-31T13:12:27.321Z,80.32
2022-10-31T13:14:45.751Z,79.73
2022-10-31T13:17:02.883Z,78.60
2022-10-31T13:19:23.374Z,79.22
2022-10-31T13:21:40.629Z,79.95
2022-10-31T13:23:58.051Z,79.56
2022-10-31T13:26:16.112Z,78.16
2022-10-31T13:28:33.156Z,78.82
2022-10-31T13:30:53.265Z,79.02
2022-10-31T13:33:10.635Z,78.80
2022-10-31T13:35:28.017Z,78.77
2022-10-31T13:37:44.955Z,79.24
2022-10-31T13:40:03.063Z,79.51
2022-10-31T13:42:20.361Z,80.69
2022-10-31T13:44:38.648Z,80.89
2022-10-31T13:46:56.267Z,80.26
2022-10-31T13:49:13.290Z,80.54
2022-10-31T13:51:37.124Z,80.61
2022-10-31T13:53:54.214Z,80.41
2022-10-31T13:56:11.199Z,80.28
2022-10-31T13:58:28.291Z,78.96
2022-10-31T14:00:45.710Z,78.54
2022-10-31T14:03:02.889Z,79.29
2022-10-31T14:05:20.283Z,78.55
2022-10-31T14:07:37.599Z,78.38
2022-10-31T14:09:56.817Z,79.54
2022-10-31T14:12:13.813Z,79.91
2022-10-31T14:14:32.919Z,78.84
2022-10-31T14:16:55.533Z,78.14
2022-10-31T14:19:13.082Z,77.72
2022-10-31T14:21:30.122Z,78.45
2022-10-31T14:23:50.739Z,77.62
2022-10-31T14:26:11.473Z,79.38
2022-10-31T14:28:28.438Z,78.57
2022-10-31T14:30:45.843Z,79.38
2022-10-31T14:33:02.858Z,79.19
2022-10-31T14:35:21.506Z,79.29
2022-10-31T14:37:39.014Z,80.93
2022-10-31T14:39:56.088Z,81.68
2022-10-31T14:42:13.095Z,80.39
2022-10-31T14:44:30.116Z,82.04
2022-10-31T14:46:47.188Z,82.29
2022-10-31T14:49:04.174Z,82.09
2022-10-31T14:51:21.603Z,82.25
2022-10-31T14:53:39.463Z,83.44
2022-10-31T14:55:56.533Z,82.80
2022-10-31T14:58:13.680Z,83.86
2022-10-31T15:00:30.714Z,82.66
2022-10-31T15:02:48.032Z,82.72
2022-10-31T15:05:05.073Z,84.19
2022-10-31T15:07:24.962Z,84.04
2022-10-31T15:09:42.369Z,83.88
2022-10-31T15:11:59.726Z,83.74
2022-10-31T15:14:18.846Z,84.74
2022-10-31T15:16:35.790Z,84.18
2022-10-31T15:18:54.185Z,84.93
2022-10-31T15:21:12.495Z,84.54
2022-10-31T15:23:31.159Z,84.23
2022-10-31T15:25:48.238Z,84.58
2022-10-31T15:28:05.312Z,84.64
2022-10-31T15:30:22.308Z,84.82
2022-10-31T15:32:39.385Z,85.48
2022-10-31T15:34:56.326Z,85.10
2022-10-31T15:37:16.006Z,85.85
2022-10-31T15:39:32.937Z,86.12
2022-10-31T15:41:54.252Z,86.21
2022-10-31T15:44:11.879Z,86.40
2022-10-31T15:46:29.195Z,87.28
2022-10-31T15:48:46.450Z,87.17
2022-10-31T15:51:04.450Z,87.51
2022-10-31T15:53:21.491Z,87.72
2022-10-31T15:55:38.542Z,88.50
2022-10-31T15:57:55.407Z,87.98
2022-10-31T16:00:12.412Z,87.85
2022-10-31T16:02:29.811Z,87.83
2022-10-31T16:04:47.825Z,89.91
2022-10-31T16:07:05.134Z,89.98
2022-10-31T16:09:22.178Z,90.03
2022-10-31T16:11:40.104Z,88.96
2022-10-31T16:13:58.154Z,88.79
2022-10-31T16:16:34.211Z,88.76
2022-10-31T16:18:52.433Z,88.99
2022-10-31T16:21:09.673Z,90.83
2022-10-31T16:23:27.946Z,90.17
2022-10-31T16:25:45.182Z,90.13
2022-10-31T16:28:02.531Z,91.15
2022-10-31T16:30:19.814Z,90.52
2022-10-31T16:32:38.075Z,90.78
2022-10-31T16:34:55.352Z,92.45
2022-10-31T16:37:12.756Z,90.67
2022-10-31T16:39:29.758Z,92.05
2022-10-31T16:41:46.930Z,91.88
2022-10-31T16:44:04.184Z,92.48
2022-10-31T16:46:24.842Z,91.39
2022-10-31T16:48:42.038Z,91.98
2022-10-31T16:50:58.946Z,89.66
2022-10-31T16:53:15.978Z,91.05
2022-10-31T16:55:33.216Z,90.47
2022-10-31T16:57:50.135Z,91.36
2022-10-31T17:00:07.082Z,91.31
2022-10-31T17:02:24.224Z,91.31
2022-10-31T17:04:41.328Z,90.57
2022-10-31T17:06:58.333Z,91.96
2022-10-31T17:09:15.650Z,92.36
2022-10-31T17:11:33.629Z,91.49
2022-10-31T17:13:50.900Z,91.35
2022-10-31T17:16:07.833Z,91.85
2022-10-31T17:18:27.616Z,93.31
2022-10-31T17:20:45.930Z,92.79
2022-10-31T17:23:03.326Z,91.82
2022-10-31T17:25:20.739Z,92.75
2022-10-31T17:27:38.042Z,91.95
2022-10-31T17:29:55.009Z,92.63
2022-10-31T17:32:12.045Z,93.64
2022-10-31T17:34:30.073Z,92.68
2022-10-31T17:36:47.107Z,93.62
2022-10-31T17:39:04.343Z,93.55
2022-10-31T17:41:21.756Z,93.01
2022-10-31T17:43:38.797Z,92.63
2022-10-31T17:45:56.110Z,92.63
2022-10-31T17:48:13.336Z,92.48
2022-10-31T17:50:30.278Z,92.51
2022-10-31T17:52:47.569Z,92.35
2022-10-31T17:55:04.663Z,92.49
2022-10-31T17:57:22.994Z,92.35
2022-10-31T17:59:40.035Z,92.88
2022-10-31T18:01:57.195Z,92.87
2022-10-31T18:04:14.293Z,92.62
2022-10-31T18:06:31.547Z,93.15
2022-10-31T18:08:48.583Z,92.64
2022-10-31T18:11:05.643Z,92.03
2022-10-31T18:13:22.646Z,92.10
2022-10-31T18:15:42.074Z,92.71
2022-10-31T18:17:59.778Z,92.61
2022-10-31T18:20:17.103Z,92.94
2022-10-31T18:22:34.086Z,92.60
2022-10-31T18:24:51.330Z,92.25
2022-10-31T18:27:08.555Z,92.22
2022-10-31T18:29:25.616Z,92.23
2022-10-31T18:31:42.521Z,92.35
2022-10-31T18:33:59.755Z,92.60
2022-10-31T18:36:16.824Z,92.36
2022-10-31T18:38:33.826Z,92.59
2022-10-31T18:40:50.859Z,92.30
2022-10-31T18:43:07.796Z,92.25
2022-10-31T18:45:33.888Z,92.32
2022-10-31T18:48:01.990Z,92.25
2022-10-31T18:50:19.160Z,92.33
2022-10-31T18:52:36.276Z,92.67
2022-10-31T18:54:54.160Z,92.16
2022-10-31T18:57:11.430Z,92.63
2022-10-31T18:59:28.713Z,91.80
2022-10-31T19:01:46.158Z,92.71
2022-10-31T19:04:03.438Z,92.16
2022-10-31T19:06:20.355Z,92.57
2022-10-31T19:08:37.455Z,92.64
2022-10-31T19:10:55.392Z,92.70
2022-10-31T19:13:12.430Z,92.40
2022-10-31T19:15:30.400Z,91.98
2022-10-31T19:17:47.581Z,92.80
2022-10-31T19:20:04.907Z,93.26
2022-10-31T19:22:21.926Z,93.05
2022-10-31T19:24:40.769Z,93.09
2022-10-31T19:26:57.799Z,93.01
2022-10-31T19:29:14.855Z,93.05
2022-10-31T19:31:31.804Z,93.04
2022-10-31T19:33:48.855Z,92.10
2022-10-31T19:36:06.067Z,92.77
2022-10-31T19:38:25.131Z,93.00
2022-10-31T19:40:42.369Z,92.67
2022-10-31T19:42:59.664Z,92.88
2022-10-31T19:45:16.599Z,92.47
2022-10-31T19:47:33.551Z,91.95
2022-10-31T19:49:52.539Z,92.73
2022-10-31T19:52:09.606Z,91.75
2022-10-31T19:54:26.691Z,93.00
2022-10-31T19:56:44.612Z,92.71
2022-10-31T19:59:02.111Z,93.10
2022-10-31T20:01:19.207Z,92.58
2022-10-31T20:03:36.313Z,93.29
2022-10-31T20:05:53.463Z,92.73
2022-10-31T20:08:11.480Z,92.73
2022-10-31T20:10:28.769Z,93.41
2022-10-31T20:12:47.005Z,92.83
2022-10-31T20:15:04.155Z,92.40
2022-10-31T20:17:21.795Z,92.26
2022-10-31T20:19:39.198Z,93.32
2022-10-31T20:21:56.677Z,93.59
2022-10-31T20:24:13.939Z,93.04
2022-10-31T20:26:31.174Z,92.80
2022-10-31T20:28:49.143Z,93.46
2022-10-31T20:31:07.178Z,93.00
2022-10-31T20:33:24.487Z,93.51
2022-10-31T20:35:41.396Z,94.33
2022-10-31T20:37:58.628Z,94.11
2022-10-31T20:40:20.517Z,93.42
2022-10-31T20:42:37.577Z,93.15
2022-10-31T20:44:55.798Z,93.52
2022-10-31T20:47:13.177Z,94.35
2022-10-31T20:49:30.068Z,93.43
2022-10-31T20:51:47.033Z,94.34
2022-10-31T20:54:06.292Z,94.19
2022-10-31T20:56:25.951Z,94.21
2022-10-31T20:58:42.968Z,93.78
2022-10-31T21:01:01.087Z,94.20
2022-10-31T21:03:18.230Z,94.33
2022-10-31T21:05:35.216Z,94.63
2022-10-31T21:07:53.490Z,94.58
2022-10-31T21:10:10.722Z,94.69
2022-10-31T21:12:27.683Z,94.53
2022-10-31T21:14:44.891Z,94.56
2022-10-31T21:17:01.925Z,94.88
2022-10-31T21:19:18.833Z,94.68
2022-10-31T21:21:36.162Z,94.80
2022-10-31T21:23:53.399Z,95.10
2022-10-31T21:26:10.383Z,94.61
2022-10-31T21:28:28.491Z,94.62
2022-10-31T21:30:45.783Z,94.09
2022-10-31T21:33:02.754Z,94.57
2022-10-31T21:35:20.721Z,95.31
2022-10-31T21:37:37.798Z,96.00
2022-10-31T21:39:55.138Z,95.73
2022-10-31T21:42:12.983Z,95.07
2022-10-31T21:44:33.308Z,96.10
2022-10-31T21:46:50.243Z,96.03
2022-10-31T21:49:07.285Z,95.79
2022-10-31T21:51:25.525Z,95.94
2022-10-31T21:53:42.750Z,96.26
2022-10-31T21:55:59.803Z,96.68
2022-10-31T21:58:16.789Z,96.32
2022-10-31T22:00:33.791Z,97.11
2022-10-31T22:02:50.777Z,96.38
2022-10-31T22:05:09.562Z,96.34
2022-10-31T22:07:26.848Z,96.84
2022-10-31T22:09:45.687Z,96.50
2022-10-31T22:12:02.668Z,95.88
2022-10-31T22:14:20.630Z,96.45
2022-10-31T22:16:37.903Z,96.87
2022-10-31T22:18:54.934Z,96.86
2022-10-31T22:21:11.847Z,97.03
2022-10-31T22:23:29.138Z,96.80
2022-10-31T22:25:46.172Z,97.18
2022-10-31T22:28:04.431Z,97.06
2022-10-31T22:30:21.803Z,97.14
2022-10-31T22:32:38.725Z,97.17
2022-10-31T22:34:55.994Z,97.28
2022-10-31T22:37:17.265Z,97.37
2022-10-31T22:39:36.547Z,97.15
2022-10-31T22:41:53.565Z,97.11
2022-10-31T22:44:11.784Z,97.38
2022-10-31T22:46:29.221Z,97.20
2022-10-31T22:48:46.655Z,96.87
2022-10-31T22:51:04.789Z,96.82
2022-10-31T22:53:21.948Z,97.00
2022-10-31T22:55:38.909Z,97.31
2022-10-31T22:57:56.148Z,97.25
2022-10-31T23:00:13.291Z,97.20
2022-10-31T23:02:30.646Z,97.14
2022-10-31T23:04:50.908Z,96.77
2022-10-31T23:07:09.692Z,97.01
2022-10-31T23:09:29.624Z,96.78
2022-10-31T23:11:46.873Z,96.75
2022-10-31T23:14:04.539Z,96.94
2022-10-31T23:16:28.646Z,96.78
2022-10-31T23:18:49.964Z,96.51
2022-10-31T23:21:07.489Z,96.38
2022-10-31T23:23:24.916Z,96.46
2022-10-31T23:25:41.882Z,96.65
2022-10-31T23:28:00.250Z,96.58
2022-10-31T23:30:19.347Z,95.92
2022-10-31T23:32:39.486Z,96.87
2022-10-31T23:34:56.510Z,96.67
2022-10-31T23:37:13.778Z,96.45
2022-10-31T23:39:31.029Z,96.01
2022-10-31T23:41:48.246Z,96.95
2022-10-31T23:44:05.273Z,96.30
2022-10-31T23:46:22.246Z,96.51
2022-10-31T23:48:39.249Z,96.49
2022-10-31T23:50:56.485Z,96.20
2022-10-31T23:53:13.416Z,96.56
2022-10-31T23:55:30.721Z,96.90
2022-10-31T23:57:47.939Z,96.19
